NJE493G LIML-EDDH
Flight info
| Callsign | NJE493G |
|---|---|
| Flight time | 1h 10m |
| Altitude | 40000 |
| Route | PEPAG N851 UTAVO DCT ROLSA DCT LOKTA DCT TEDGO DCT HAREM DCT LOHRE DCT MASEK DCT ELNAT P605 NOLGO NOLGO6A |
| Aircraft | CL60/M-SBDE1E2E3FGHIJ1J4J5J7M3RWXYZ/LB1V1D1 |
Departure
| Time | 2026-05-05 16:54 |
|---|---|
| Airport | Milano Linate Airport (LIML) |
Arrival
| Time | 2026-05-05 18:05 |
|---|---|
| Airport | Hamburg Helmut Schmidt Airport (EDDH) |
| Time | Latitude | Longitude | Altitude | Speed | Heading |
|---|---|---|---|---|---|
| 2026-05-05 16:07 | 45.45329 | 9.26267 | 357 ft | 0 kts | 246° |
| 2026-05-05 16:33 | 45.45329 | 9.26266 | 357 ft | 0 kts | 246° |
| 2026-05-05 16:38 | 45.45334 | 9.26248 | 357 ft | 3 kts | 341° |
| 2026-05-05 16:39 | 45.45356 | 9.26279 | 357 ft | 5 kts | 54° |
| 2026-05-05 16:39 | 45.45400 | 9.26296 | 357 ft | 8 kts | 336° |
| 2026-05-05 16:39 | 45.45464 | 9.26254 | 357 ft | 10 kts | 335° |
| 2026-05-05 16:39 | 45.45542 | 9.26202 | 358 ft | 14 kts | 331° |
| 2026-05-05 16:40 | 45.45642 | 9.26157 | 358 ft | 16 kts | 355° |
| 2026-05-05 16:40 | 45.45768 | 9.26143 | 358 ft | 18 kts | 356° |
| 2026-05-05 16:40 | 45.45857 | 9.26162 | 359 ft | 14 kts | 22° |
| 2026-05-05 16:40 | 45.45948 | 9.26250 | 359 ft | 17 kts | 40° |
| 2026-05-05 16:41 | 45.46034 | 9.26386 | 359 ft | 19 kts | 58° |
| 2026-05-05 16:41 | 45.46067 | 9.26580 | 358 ft | 21 kts | 89° |
| 2026-05-05 16:41 | 45.46066 | 9.26800 | 358 ft | 22 kts | 91° |
| 2026-05-05 16:41 | 45.46051 | 9.27029 | 359 ft | 24 kts | 104° |
| 2026-05-05 16:42 | 45.46019 | 9.27269 | 360 ft | 25 kts | 92° |
| 2026-05-05 16:42 | 45.46016 | 9.27525 | 361 ft | 26 kts | 90° |
| 2026-05-05 16:42 | 45.45969 | 9.27711 | 362 ft | 20 kts | 128° |
| 2026-05-05 16:42 | 45.45908 | 9.27829 | 362 ft | 12 kts | 99° |
| 2026-05-05 16:43 | 45.45907 | 9.27957 | 363 ft | 9 kts | 94° |
| 2026-05-05 16:43 | 45.45849 | 9.27984 | 362 ft | 11 kts | 180° |
| 2026-05-05 16:43 | 45.45742 | 9.27984 | 362 ft | 18 kts | 179° |
| 2026-05-05 16:43 | 45.45599 | 9.27980 | 361 ft | 22 kts | 181° |
| 2026-05-05 16:44 | 45.45446 | 9.27978 | 360 ft | 16 kts | 180° |
| 2026-05-05 16:44 | 45.45322 | 9.27932 | 359 ft | 20 kts | 206° |
| 2026-05-05 16:44 | 45.45240 | 9.27880 | 358 ft | 11 kts | 196° |
| 2026-05-05 16:44 | 45.45131 | 9.27875 | 358 ft | 19 kts | 176° |
| 2026-05-05 16:45 | 45.44988 | 9.27890 | 357 ft | 20 kts | 176° |
| 2026-05-05 16:45 | 45.44866 | 9.27933 | 356 ft | 20 kts | 167° |
| 2026-05-05 16:45 | 45.44708 | 9.27956 | 355 ft | 24 kts | 176° |
| 2026-05-05 16:45 | 45.44532 | 9.27974 | 353 ft | 26 kts | 175° |
| 2026-05-05 16:46 | 45.44336 | 9.27995 | 351 ft | 29 kts | 175° |
| 2026-05-05 16:46 | 45.44120 | 9.28019 | 349 ft | 31 kts | 176° |
| 2026-05-05 16:46 | 45.43898 | 9.28042 | 347 ft | 27 kts | 176° |
| 2026-05-05 16:46 | 45.43756 | 9.28054 | 346 ft | 21 kts | 173° |
| 2026-05-05 16:47 | 45.43613 | 9.28073 | 344 ft | 12 kts | 176° |
| 2026-05-05 16:47 | 45.43519 | 9.28083 | 344 ft | 15 kts | 175° |
| 2026-05-05 16:47 | 45.43452 | 9.28035 | 343 ft | 9 kts | 252° |
| 2026-05-05 16:47 | 45.43447 | 9.27989 | 343 ft | 0 kts | 265° |
| 2026-05-05 16:53 | 45.43444 | 9.27937 | 343 ft | 11 kts | 265° |
| 2026-05-05 16:53 | 45.43461 | 9.27830 | 343 ft | 12 kts | 328° |
| 2026-05-05 16:53 | 45.43514 | 9.27813 | 344 ft | 0 kts | 356° |
| 2026-05-05 16:54 | 45.43645 | 9.27801 | 345 ft | 59 kts | 356° |
| 2026-05-05 16:54 | 45.44360 | 9.27721 | 352 ft | 139 kts | 355° |
| 2026-05-05 16:54 | 45.45433 | 9.27583 | 776 ft | 165 kts | 357° |
| 2026-05-05 16:54 | 45.46603 | 9.27390 | 1494 ft | 178 kts | 347° |
| 2026-05-05 16:55 | 45.47789 | 9.26869 | 2320 ft | 184 kts | 341° |
| 2026-05-05 16:55 | 45.49000 | 9.26256 | 3200 ft | 187 kts | 341° |
| 2026-05-05 16:55 | 45.50238 | 9.25629 | 3959 ft | 197 kts | 340° |
| 2026-05-05 16:55 | 45.51621 | 9.24932 | 4407 ft | 229 kts | 341° |
| 2026-05-05 16:56 | 45.53231 | 9.24128 | 4875 ft | 258 kts | 340° |
| 2026-05-05 16:56 | 45.54962 | 9.23266 | 5480 ft | 272 kts | 340° |
| 2026-05-05 16:56 | 45.56807 | 9.22663 | 6197 ft | 277 kts | 357° |
| 2026-05-05 16:56 | 45.58765 | 9.22471 | 6960 ft | 284 kts | 351° |
| 2026-05-05 16:57 | 45.60696 | 9.21855 | 7708 ft | 287 kts | 344° |
| 2026-05-05 16:57 | 45.62620 | 9.21112 | 8455 ft | 291 kts | 343° |
| 2026-05-05 16:57 | 45.64586 | 9.20357 | 9197 ft | 294 kts | 343° |
| 2026-05-05 16:57 | 45.66575 | 9.19594 | 9957 ft | 298 kts | 343° |
| 2026-05-05 16:58 | 45.68624 | 9.18805 | 10721 ft | 316 kts | 342° |
| 2026-05-05 16:58 | 45.70810 | 9.17960 | 11455 ft | 343 kts | 342° |
| 2026-05-05 16:58 | 45.73213 | 9.17032 | 12201 ft | 364 kts | 342° |
| 2026-05-05 16:58 | 45.75673 | 9.16085 | 12959 ft | 372 kts | 342° |
| 2026-05-05 16:59 | 45.78165 | 9.15126 | 13677 ft | 377 kts | 341° |
| 2026-05-05 16:59 | 45.80732 | 9.14137 | 14594 ft | 387 kts | 341° |
| 2026-05-05 16:59 | 45.83362 | 9.13124 | 15747 ft | 391 kts | 341° |
| 2026-05-05 16:59 | 45.85994 | 9.12106 | 16797 ft | 396 kts | 341° |
| 2026-05-05 17:00 | 45.88661 | 9.11056 | 17823 ft | 401 kts | 340° |
| 2026-05-05 17:00 | 45.91371 | 9.09987 | 18755 ft | 407 kts | 340° |
| 2026-05-05 17:00 | 45.94121 | 9.08906 | 19557 ft | 415 kts | 340° |
| 2026-05-05 17:00 | 45.96964 | 9.07791 | 20239 ft | 421 kts | 340° |
| 2026-05-05 17:01 | 45.99834 | 9.06897 | 21030 ft | 430 kts | 348° |
| 2026-05-05 17:01 | 46.02819 | 9.06393 | 21731 ft | 437 kts | 350° |
| 2026-05-05 17:01 | 46.05872 | 9.05900 | 22389 ft | 443 kts | 349° |
| 2026-05-05 17:01 | 46.08932 | 9.05404 | 23265 ft | 444 kts | 350° |
| 2026-05-05 17:02 | 46.12019 | 9.04904 | 24117 ft | 446 kts | 349° |
| 2026-05-05 17:02 | 46.15079 | 9.04406 | 24828 ft | 449 kts | 349° |
| 2026-05-05 17:02 | 46.18151 | 9.03952 | 25457 ft | 455 kts | 350° |
| 2026-05-05 17:02 | 46.21363 | 9.03526 | 26067 ft | 460 kts | 350° |
| 2026-05-05 17:03 | 46.24457 | 9.03114 | 26590 ft | 465 kts | 350° |
| 2026-05-05 17:03 | 46.27806 | 9.02667 | 27155 ft | 469 kts | 349° |
| 2026-05-05 17:03 | 46.31100 | 9.02227 | 27660 ft | 473 kts | 349° |
| 2026-05-05 17:03 | 46.34420 | 9.01783 | 28187 ft | 477 kts | 349° |
| 2026-05-05 17:04 | 46.37794 | 9.01331 | 28689 ft | 480 kts | 349° |
| 2026-05-05 17:04 | 46.41156 | 9.00880 | 29153 ft | 483 kts | 349° |
| 2026-05-05 17:04 | 46.44553 | 9.00424 | 29586 ft | 486 kts | 349° |
| 2026-05-05 17:04 | 46.47916 | 8.99974 | 30114 ft | 486 kts | 349° |
| 2026-05-05 17:05 | 46.51297 | 8.99522 | 30703 ft | 484 kts | 349° |
| 2026-05-05 17:05 | 46.54646 | 8.99073 | 31253 ft | 482 kts | 349° |
| 2026-05-05 17:05 | 46.58011 | 8.98620 | 31766 ft | 481 kts | 349° |
| 2026-05-05 17:05 | 46.61331 | 8.98173 | 32239 ft | 481 kts | 349° |
| 2026-05-05 17:06 | 46.64697 | 8.97719 | 32686 ft | 481 kts | 349° |
| 2026-05-05 17:06 | 46.68029 | 8.97268 | 33113 ft | 481 kts | 349° |
| 2026-05-05 17:06 | 46.71387 | 8.96813 | 33524 ft | 482 kts | 349° |
| 2026-05-05 17:06 | 46.74731 | 8.96359 | 33935 ft | 481 kts | 349° |
| 2026-05-05 17:07 | 46.78046 | 8.95909 | 34322 ft | 481 kts | 349° |
| 2026-05-05 17:07 | 46.81383 | 8.95456 | 34710 ft | 480 kts | 349° |
| 2026-05-05 17:07 | 46.84677 | 8.95007 | 35106 ft | 478 kts | 349° |
| 2026-05-05 17:07 | 46.87957 | 8.94561 | 35505 ft | 476 kts | 350° |
| 2026-05-05 17:08 | 46.91244 | 8.94112 | 35910 ft | 473 kts | 350° |
| 2026-05-05 17:08 | 46.94535 | 8.93662 | 36315 ft | 472 kts | 350° |
| 2026-05-05 17:08 | 46.97782 | 8.93218 | 36702 ft | 471 kts | 350° |
| 2026-05-05 17:08 | 47.01060 | 8.92768 | 37024 ft | 471 kts | 350° |
| 2026-05-05 17:09 | 47.04314 | 8.92321 | 37342 ft | 471 kts | 351° |
| 2026-05-05 17:09 | 47.07566 | 8.91874 | 37632 ft | 470 kts | 351° |
| 2026-05-05 17:09 | 47.10842 | 8.91423 | 37923 ft | 470 kts | 351° |
| 2026-05-05 17:09 | 47.14098 | 8.90974 | 38209 ft | 469 kts | 351° |
| 2026-05-05 17:10 | 47.17268 | 8.90536 | 38456 ft | 469 kts | 351° |
| 2026-05-05 17:10 | 47.20390 | 8.90105 | 38688 ft | 469 kts | 351° |
| 2026-05-05 17:10 | 47.23661 | 8.89652 | 38921 ft | 468 kts | 351° |
| 2026-05-05 17:10 | 47.26950 | 8.89323 | 39136 ft | 470 kts | 356° |
| 2026-05-05 17:11 | 47.30121 | 8.89530 | 39261 ft | 474 kts | 4° |
| 2026-05-05 17:11 | 47.33312 | 8.90332 | 39385 ft | 477 kts | 11° |
| 2026-05-05 17:11 | 47.36682 | 8.91446 | 39489 ft | 478 kts | 11° |
| 2026-05-05 17:11 | 47.39951 | 8.92528 | 39640 ft | 479 kts | 11° |
| 2026-05-05 17:12 | 47.43210 | 8.93605 | 39761 ft | 480 kts | 11° |
| 2026-05-05 17:12 | 47.46454 | 8.94680 | 39880 ft | 480 kts | 11° |
| 2026-05-05 17:12 | 47.53028 | 8.96861 | 39879 ft | 486 kts | 11° |
| 2026-05-05 17:13 | 47.59613 | 8.99051 | 39901 ft | 488 kts | 11° |
| 2026-05-05 17:13 | 47.66230 | 9.01259 | 39885 ft | 487 kts | 11° |
| 2026-05-05 17:14 | 47.72865 | 9.03478 | 39883 ft | 486 kts | 11° |
| 2026-05-05 17:14 | 47.79456 | 9.05688 | 39886 ft | 485 kts | 12° |
| 2026-05-05 17:15 | 47.86021 | 9.07896 | 39864 ft | 485 kts | 12° |
| 2026-05-05 17:15 | 47.92603 | 9.10114 | 39863 ft | 486 kts | 12° |
| 2026-05-05 17:16 | 47.99195 | 9.12341 | 39853 ft | 487 kts | 12° |
| 2026-05-05 17:16 | 48.05818 | 9.14585 | 39850 ft | 486 kts | 12° |
| 2026-05-05 17:17 | 48.12391 | 9.16818 | 39846 ft | 485 kts | 12° |
| 2026-05-05 17:17 | 48.18903 | 9.18720 | 39852 ft | 484 kts | 5° |
| 2026-05-05 17:18 | 48.25544 | 9.19816 | 39839 ft | 484 kts | 5° |
| 2026-05-05 17:18 | 48.32120 | 9.20913 | 39843 ft | 484 kts | 5° |
| 2026-05-05 17:19 | 48.38567 | 9.21993 | 39841 ft | 484 kts | 5° |
| 2026-05-05 17:20 | 48.51652 | 9.24200 | 39819 ft | 485 kts | 5° |
| 2026-05-05 17:20 | 48.58351 | 9.25337 | 39842 ft | 484 kts | 5° |
| 2026-05-05 17:21 | 48.65080 | 9.26433 | 39837 ft | 484 kts | 4° |
| 2026-05-05 17:22 | 48.75164 | 9.27965 | 39841 ft | 484 kts | 4° |
| 2026-05-05 17:22 | 48.81848 | 9.28985 | 39830 ft | 484 kts | 4° |
| 2026-05-05 17:23 | 48.88528 | 9.30009 | 39823 ft | 485 kts | 5° |
| 2026-05-05 17:23 | 48.95244 | 9.31042 | 39838 ft | 484 kts | 5° |
| 2026-05-05 17:24 | 49.01992 | 9.32082 | 39816 ft | 484 kts | 5° |
| 2026-05-05 17:24 | 49.08667 | 9.33115 | 39830 ft | 485 kts | 4° |
| 2026-05-05 17:25 | 49.15135 | 9.34119 | 39825 ft | 485 kts | 5° |
| 2026-05-05 17:25 | 49.21795 | 9.35156 | 39828 ft | 484 kts | 5° |
| 2026-05-05 17:26 | 49.28554 | 9.36211 | 39825 ft | 484 kts | 5° |
| 2026-05-05 17:26 | 49.35142 | 9.37242 | 39815 ft | 485 kts | 5° |
| 2026-05-05 17:27 | 49.41858 | 9.38296 | 39831 ft | 485 kts | 5° |
| 2026-05-05 17:27 | 49.48611 | 9.39359 | 39827 ft | 484 kts | 5° |
| 2026-05-05 17:28 | 49.55298 | 9.40414 | 39809 ft | 483 kts | 5° |
| 2026-05-05 17:28 | 49.62017 | 9.41478 | 39799 ft | 485 kts | 5° |
| 2026-05-05 17:29 | 49.68666 | 9.42536 | 39815 ft | 483 kts | 5° |
| 2026-05-05 17:29 | 49.75400 | 9.43611 | 39797 ft | 485 kts | 5° |
| 2026-05-05 17:30 | 49.82110 | 9.44685 | 39806 ft | 484 kts | 5° |
| 2026-05-05 17:30 | 49.88811 | 9.45761 | 39802 ft | 484 kts | 5° |
| 2026-05-05 17:31 | 49.95523 | 9.46842 | 39799 ft | 485 kts | 5° |
| 2026-05-05 17:31 | 50.02229 | 9.47924 | 39797 ft | 486 kts | 5° |
| 2026-05-05 17:32 | 50.08932 | 9.49018 | 39788 ft | 485 kts | 5° |
| 2026-05-05 17:32 | 50.15642 | 9.50141 | 39789 ft | 484 kts | 5° |
| 2026-05-05 17:33 | 50.22356 | 9.51266 | 39791 ft | 484 kts | 5° |
| 2026-05-05 17:33 | 50.29057 | 9.52394 | 39793 ft | 485 kts | 5° |
| 2026-05-05 17:34 | 50.35731 | 9.53519 | 39792 ft | 484 kts | 4° |
| 2026-05-05 17:34 | 50.42432 | 9.54653 | 39781 ft | 484 kts | 5° |
| 2026-05-05 17:35 | 50.49101 | 9.55784 | 39780 ft | 484 kts | 5° |
| 2026-05-05 17:35 | 50.55812 | 9.56925 | 39766 ft | 484 kts | 4° |
| 2026-05-05 17:36 | 50.62519 | 9.58068 | 39769 ft | 485 kts | 4° |
| 2026-05-05 17:36 | 50.69255 | 9.59220 | 39776 ft | 488 kts | 4° |
| 2026-05-05 17:37 | 50.76069 | 9.60442 | 39776 ft | 494 kts | 5° |
| 2026-05-05 17:37 | 50.82910 | 9.61771 | 39771 ft | 497 kts | 5° |
| 2026-05-05 17:38 | 50.89786 | 9.63108 | 39776 ft | 497 kts | 5° |
| 2026-05-05 17:38 | 50.96634 | 9.64444 | 39774 ft | 496 kts | 5° |
| 2026-05-05 17:39 | 51.03514 | 9.65788 | 39782 ft | 495 kts | 5° |
| 2026-05-05 17:39 | 51.10028 | 9.67066 | 39782 ft | 495 kts | 5° |
| 2026-05-05 17:40 | 51.16569 | 9.68356 | 39791 ft | 495 kts | 5° |
| 2026-05-05 17:40 | 51.23212 | 9.69589 | 39805 ft | 494 kts | 4° |
| 2026-05-05 17:41 | 51.29914 | 9.70666 | 39815 ft | 494 kts | 4° |
| 2026-05-05 17:41 | 51.36742 | 9.71769 | 39797 ft | 494 kts | 4° |
| 2026-05-05 17:42 | 51.43567 | 9.72877 | 39795 ft | 494 kts | 4° |
| 2026-05-05 17:42 | 51.50383 | 9.74056 | 39793 ft | 494 kts | 5° |
| 2026-05-05 17:43 | 51.57199 | 9.75345 | 39789 ft | 493 kts | 5° |
| 2026-05-05 17:43 | 51.64015 | 9.76636 | 39797 ft | 492 kts | 5° |
| 2026-05-05 17:44 | 51.70847 | 9.77933 | 39639 ft | 495 kts | 5° |
| 2026-05-05 17:44 | 51.74240 | 9.78578 | 39383 ft | 497 kts | 5° |
| 2026-05-05 17:44 | 51.77680 | 9.79234 | 38996 ft | 497 kts | 5° |
| 2026-05-05 17:44 | 51.81124 | 9.79891 | 38407 ft | 496 kts | 5° |
| 2026-05-05 17:45 | 51.84577 | 9.80552 | 37832 ft | 496 kts | 5° |
| 2026-05-05 17:45 | 51.87999 | 9.81208 | 37239 ft | 496 kts | 5° |
| 2026-05-05 17:45 | 51.91434 | 9.81873 | 36682 ft | 499 kts | 5° |
| 2026-05-05 17:45 | 51.94901 | 9.82543 | 36037 ft | 502 kts | 5° |
| 2026-05-05 17:46 | 51.98370 | 9.83216 | 35446 ft | 501 kts | 5° |
| 2026-05-05 17:46 | 52.01844 | 9.83891 | 34808 ft | 504 kts | 5° |
| 2026-05-05 17:46 | 52.05322 | 9.84567 | 34251 ft | 504 kts | 5° |
| 2026-05-05 17:46 | 52.08802 | 9.85246 | 33622 ft | 506 kts | 5° |
| 2026-05-05 17:47 | 52.12133 | 9.85897 | 33084 ft | 498 kts | 5° |
| 2026-05-05 17:47 | 52.15562 | 9.86568 | 32465 ft | 494 kts | 5° |
| 2026-05-05 17:47 | 52.18805 | 9.87202 | 31941 ft | 491 kts | 5° |
| 2026-05-05 17:47 | 52.22110 | 9.87849 | 31357 ft | 490 kts | 5° |
| 2026-05-05 17:48 | 52.25379 | 9.88582 | 30802 ft | 491 kts | 9° |
| 2026-05-05 17:48 | 52.28717 | 9.89949 | 30202 ft | 493 kts | 14° |
| 2026-05-05 17:48 | 52.32019 | 9.91416 | 29622 ft | 493 kts | 13° |
| 2026-05-05 17:48 | 52.35356 | 9.92891 | 29031 ft | 493 kts | 13° |
| 2026-05-05 17:49 | 52.38628 | 9.94339 | 28453 ft | 489 kts | 13° |
| 2026-05-05 17:49 | 52.41892 | 9.95785 | 27873 ft | 484 kts | 13° |
| 2026-05-05 17:49 | 52.45140 | 9.97226 | 27294 ft | 479 kts | 13° |
| 2026-05-05 17:49 | 52.48315 | 9.98635 | 26731 ft | 473 kts | 13° |
| 2026-05-05 17:50 | 52.51460 | 10.00033 | 26171 ft | 468 kts | 13° |
| 2026-05-05 17:50 | 52.54600 | 10.01430 | 25610 ft | 464 kts | 13° |
| 2026-05-05 17:50 | 52.57709 | 10.02817 | 25055 ft | 459 kts | 13° |
| 2026-05-05 17:50 | 52.60787 | 10.04194 | 24512 ft | 454 kts | 13° |
| 2026-05-05 17:51 | 52.63780 | 10.05533 | 23974 ft | 450 kts | 13° |
| 2026-05-05 17:51 | 52.66795 | 10.06885 | 23447 ft | 445 kts | 13° |
| 2026-05-05 17:51 | 52.69799 | 10.08043 | 22927 ft | 438 kts | 5° |
| 2026-05-05 17:51 | 52.72768 | 10.07869 | 22436 ft | 434 kts | 347° |
| 2026-05-05 17:52 | 52.75760 | 10.06766 | 22021 ft | 437 kts | 344° |
| 2026-05-05 17:52 | 52.78731 | 10.05595 | 21614 ft | 436 kts | 344° |
| 2026-05-05 17:52 | 52.81638 | 10.04437 | 21196 ft | 433 kts | 344° |
| 2026-05-05 17:52 | 52.84546 | 10.03270 | 20681 ft | 425 kts | 344° |
| 2026-05-05 17:53 | 52.87390 | 10.02117 | 20046 ft | 415 kts | 344° |
| 2026-05-05 17:53 | 52.90159 | 10.00978 | 19421 ft | 407 kts | 344° |
| 2026-05-05 17:53 | 52.92899 | 9.99834 | 18748 ft | 400 kts | 344° |
| 2026-05-05 17:53 | 52.95581 | 9.98690 | 18020 ft | 395 kts | 344° |
| 2026-05-05 17:54 | 52.98208 | 9.97557 | 17289 ft | 390 kts | 344° |
| 2026-05-05 17:54 | 53.00817 | 9.96434 | 16583 ft | 385 kts | 344° |
| 2026-05-05 17:54 | 53.03339 | 9.95093 | 15860 ft | 379 kts | 336° |
| 2026-05-05 17:54 | 53.05745 | 9.93320 | 15150 ft | 375 kts | 334° |
| 2026-05-05 17:55 | 53.08087 | 9.91559 | 14451 ft | 370 kts | 334° |
| 2026-05-05 17:55 | 53.10319 | 9.89876 | 13782 ft | 365 kts | 334° |
| 2026-05-05 17:55 | 53.12478 | 9.88244 | 13095 ft | 361 kts | 334° |
| 2026-05-05 17:55 | 53.14774 | 9.86511 | 12375 ft | 357 kts | 334° |
| 2026-05-05 17:56 | 53.16867 | 9.84927 | 11724 ft | 352 kts | 334° |
| 2026-05-05 17:56 | 53.19057 | 9.83275 | 11373 ft | 341 kts | 334° |
| 2026-05-05 17:56 | 53.21224 | 9.81645 | 11122 ft | 346 kts | 334° |
| 2026-05-05 17:56 | 53.23443 | 9.79960 | 10878 ft | 346 kts | 334° |
| 2026-05-05 17:57 | 53.25580 | 9.78328 | 10586 ft | 336 kts | 334° |
| 2026-05-05 17:57 | 53.27689 | 9.76720 | 10066 ft | 330 kts | 334° |
| 2026-05-05 17:57 | 53.29790 | 9.75110 | 9546 ft | 334 kts | 334° |
| 2026-05-05 17:57 | 53.31880 | 9.73496 | 9051 ft | 334 kts | 334° |
| 2026-05-05 17:58 | 53.33995 | 9.71849 | 8564 ft | 332 kts | 334° |
| 2026-05-05 17:58 | 53.36059 | 9.70225 | 8058 ft | 329 kts | 334° |
| 2026-05-05 17:58 | 53.38114 | 9.68584 | 7553 ft | 320 kts | 334° |
| 2026-05-05 17:58 | 53.40079 | 9.66997 | 7056 ft | 310 kts | 334° |
| 2026-05-05 17:59 | 53.41987 | 9.65440 | 6589 ft | 302 kts | 334° |
| 2026-05-05 17:59 | 53.43853 | 9.63906 | 6076 ft | 295 kts | 335° |
| 2026-05-05 17:59 | 53.45787 | 9.63026 | 5595 ft | 286 kts | 359° |
| 2026-05-05 17:59 | 53.47665 | 9.63771 | 5083 ft | 276 kts | 29° |
| 2026-05-05 18:00 | 53.49009 | 9.65962 | 4594 ft | 269 kts | 60° |
| 2026-05-05 18:00 | 53.49512 | 9.68912 | 4085 ft | 264 kts | 82° |
| 2026-05-05 18:00 | 53.49780 | 9.71899 | 3660 ft | 252 kts | 69° |
| 2026-05-05 18:00 | 53.50749 | 9.74189 | 3362 ft | 235 kts | 43° |
| 2026-05-05 18:01 | 53.51820 | 9.76132 | 3108 ft | 220 kts | 52° |
| 2026-05-05 18:01 | 53.52739 | 9.78080 | 2886 ft | 206 kts | 49° |
| 2026-05-05 18:01 | 53.53632 | 9.79872 | 2654 ft | 194 kts | 50° |
| 2026-05-05 18:01 | 53.54455 | 9.81533 | 2416 ft | 178 kts | 50° |
| 2026-05-05 18:02 | 53.55228 | 9.83088 | 2147 ft | 172 kts | 50° |
| 2026-05-05 18:02 | 53.55986 | 9.84613 | 1903 ft | 167 kts | 50° |
| 2026-05-05 18:02 | 53.56729 | 9.86105 | 1672 ft | 164 kts | 50° |
| 2026-05-05 18:02 | 53.57426 | 9.87510 | 1462 ft | 147 kts | 50° |
| 2026-05-05 18:03 | 53.58092 | 9.88848 | 1263 ft | 148 kts | 50° |
| 2026-05-05 18:03 | 53.58739 | 9.90150 | 1085 ft | 131 kts | 50° |
| 2026-05-05 18:03 | 53.59299 | 9.91279 | 943 ft | 122 kts | 50° |
| 2026-05-05 18:03 | 53.59840 | 9.92371 | 725 ft | 117 kts | 50° |
| 2026-05-05 18:04 | 53.60372 | 9.93443 | 580 ft | 117 kts | 51° |
| 2026-05-05 18:04 | 53.60901 | 9.94510 | 422 ft | 118 kts | 50° |
| 2026-05-05 18:04 | 53.61441 | 9.95591 | 251 ft | 119 kts | 50° |
| 2026-05-05 18:04 | 53.61969 | 9.96667 | 96 ft | 118 kts | 50° |
| 2026-05-05 18:05 | 53.62480 | 9.97696 | 40 ft | 100 kts | 50° |
| 2026-05-05 18:05 | 53.62846 | 9.98440 | 43 ft | 67 kts | 50° |
| 2026-05-05 18:05 | 53.63054 | 9.98865 | 43 ft | 28 kts | 59° |
| 2026-05-05 18:05 | 53.63090 | 9.99134 | 44 ft | 28 kts | 94° |
| 2026-05-05 18:06 | 53.63062 | 9.99246 | 44 ft | 9 kts | 168° |
| 2026-05-05 18:06 | 53.63018 | 9.99214 | 44 ft | 12 kts | 224° |
| 2026-05-05 18:06 | 53.62941 | 9.99061 | 43 ft | 15 kts | 230° |
| 2026-05-05 18:06 | 53.62865 | 9.98907 | 43 ft | 19 kts | 230° |
| 2026-05-05 18:07 | 53.62787 | 9.98750 | 43 ft | 13 kts | 230° |
| 2026-05-05 18:07 | 53.62753 | 9.98680 | 43 ft | 8 kts | 230° |
| 2026-05-05 18:07 | 53.62725 | 9.98634 | 43 ft | 4 kts | 184° |
| 2026-05-05 18:07 | 53.62689 | 9.98667 | 43 ft | 4 kts | 151° |
| 2026-05-05 18:08 | 53.62651 | 9.98700 | 43 ft | 8 kts | 153° |
| 2026-05-05 18:08 | 53.62611 | 9.98732 | 43 ft | 4 kts | 161° |
| 2026-05-05 18:08 | 53.62591 | 9.98694 | 43 ft | 2 kts | 243° |
| 2026-05-05 18:08 | 53.62589 | 9.98688 | 43 ft | 0 kts | 243° |